Time;durP1;ratioP1;P1;durP2;ratioP2;P2;SDS_P1;SDS_P2;PMS_P1;PMS_P2;Temp;Humidity;BMP_temperature;BMP_pressure;BME280_temperature;BME280_humidity;BME280_pressure;Samples;Min_cycle;Max_cycle;Signal;HPM_P1;HPM_P2
2022/12/20 00:02:01;;;;;;;0.77;0.77;;;;;;;3.52;94.43;96096.00;4300986;32;20244;-56
2022/12/20 00:04:26;;;;;;;0.93;0.93;;;;;;;3.65;94.16;96091.31;4322898;32;20246;-57
2022/12/20 00:06:51;;;;;;;1.50;1.50;;;;;;;3.72;93.57;96094.59;4331385;32;20201;-56
2022/12/20 00:09:17;;;;;;;1.67;1.67;;;;;;;3.82;93.04;96094.00;4322834;32;20189;-57
2022/12/20 00:11:42;;;;;;;1.00;1.00;;;;;;;3.81;93.16;96097.66;4335754;32;20198;-56
2022/12/20 00:14:09;;;;;;;1.37;1.37;;;;;;;3.83;92.92;96103.47;4332205;32;20207;-57
2022/12/20 00:16:35;;;;;;;0.87;0.87;;;;;;;3.71;93.17;96092.22;4334960;32;20209;-56
2022/12/20 00:19:04;;;;;;;1.20;1.13;;;;;;;3.75;93.28;96094.12;4331462;32;20385;-56
2022/12/20 00:21:32;;;;;;;2.33;1.80;;;;;;;3.79;93.15;96097.09;4333980;32;20378;-57
2022/12/20 00:23:58;;;;;;;1.27;1.27;;;;;;;3.97;92.36;96096.13;4320230;32;20295;-56
2022/12/20 00:26:27;;;;;;;0.87;0.87;;;;;;;3.71;93.00;96100.09;4331907;32;20381;-55
2022/12/20 00:28:54;;;;;;;1.90;1.40;;;;;;;3.45;94.48;96102.16;4332484;32;20232;-54
2022/12/20 00:31:21;;;;;;;1.20;1.20;;;;;;;3.57;94.47;96082.97;4334642;32;20266;-56
2022/12/20 00:33:49;;;;;;;1.07;1.07;;;;;;;3.66;94.17;96089.47;4328207;32;20334;-56
2022/12/20 00:36:17;;;;;;;0.93;0.93;;;;;;;3.85;93.41;96071.75;4338962;32;20294;-54
2022/12/20 00:38:47;;;;;;;1.80;1.13;;;;;;;3.68;93.53;96074.31;4335196;32;20267;-55
2022/12/20 00:41:16;;;;;;;1.23;1.23;;;;;;;3.69;93.87;96083.78;4325309;32;20325;-57
2022/12/20 00:43:41;;;;;;;1.40;1.30;;;;;;;3.61;93.86;96082.28;4336641;32;20287;-54
2022/12/20 00:46:09;;;;;;;1.87;1.77;;;;;;;3.70;93.89;96086.16;4332312;33;20282;-56
2022/12/20 00:48:34;;;;;;;4.03;2.23;;;;;;;3.69;94.04;96081.94;4334822;32;20193;-55
2022/12/20 00:51:04;;;;;;;1.77;1.50;;;;;;;3.80;93.52;96075.87;4342792;32;20410;-54
2022/12/20 00:53:30;;;;;;;1.27;1.27;;;;;;;3.80;93.27;96075.87;4329209;32;20200;-54
2022/12/20 00:55:56;;;;;;;1.07;0.60;;;;;;;3.53;94.19;96076.63;4325294;32;20301;-57
2022/12/20 00:58:21;;;;;;;1.57;1.47;;;;;;;3.42;94.91;96084.25;4327163;32;20190;-57
2022/12/20 01:00:47;;;;;;;1.93;1.83;;;;;;;3.64;94.57;96086.28;4323561;32;20297;-56
2022/12/20 01:03:13;;;;;;;1.00;1.00;;;;;;;3.73;93.94;96087.53;4320636;33;20186;-57
2022/12/20 01:05:38;;;;;;;0.97;0.97;;;;;;;3.85;93.13;96083.03;4325958;32;20289;-57
2022/12/20 01:08:04;;;;;;;0.60;0.60;;;;;;;3.78;92.71;96095.50;4322106;32;20198;-57
2022/12/20 01:10:30;;;;;;;2.13;1.93;;;;;;;3.72;93.38;96094.59;4333896;32;20185;-56
2022/12/20 01:12:55;;;;;;;1.27;1.27;;;;;;;3.71;93.63;96093.00;4332025;32;20254;-57
2022/12/20 01:15:20;;;;;;;0.43;0.43;;;;;;;3.49;94.04;96096.44;4326799;32;20240;-58
2022/12/20 01:17:47;;;;;;;1.57;1.57;;;;;;;3.44;94.48;96086.66;4330107;32;20228;-56
2022/12/20 01:20:14;;;;;;;1.87;1.77;;;;;;;3.57;94.46;96086.41;4324659;32;20205;-55
2022/12/20 01:22:39;;;;;;;0.43;0.43;;;;;;;3.52;94.37;96088.94;4324923;32;20279;-57
2022/12/20 01:25:05;;;;;;;1.60;1.50;;;;;;;3.62;94.00;96077.84;4324419;32;20293;-57
2022/12/20 01:27:30;;;;;;;2.27;1.73;;;;;;;3.56;94.47;96089.25;4323364;33;20427;-56
2022/12/20 01:29:56;;;;;;;1.03;1.03;;;;;;;3.52;94.50;96081.06;4322171;32;20344;-57
2022/12/20 01:32:21;;;;;;;1.30;1.30;;;;;;;3.54;94.42;96078.19;4327499;32;20216;-58
2022/12/20 01:34:47;;;;;;;0.83;0.83;;;;;;;3.60;94.34;96072.03;4320969;32;20186;-56
2022/12/20 01:37:12;;;;;;;0.93;0.93;;;;;;;3.70;93.66;96067.00;4321879;32;20221;-56
2022/12/20 01:39:37;;;;;;;0.57;0.57;;;;;;;3.77;93.46;96065.03;4324039;32;20193;-56
2022/12/20 01:42:03;;;;;;;0.97;0.97;;;;;;;3.74;93.64;96065.50;4323279;32;20198;-57
2022/12/20 01:44:31;;;;;;;0.83;0.83;;;;;;;3.77;93.59;96060.56;4320707;32;20189;-57
2022/12/20 01:46:58;;;;;;;2.13;0.97;;;;;;;3.86;93.08;96066.28;4299329;32;20322;-58
2022/12/20 01:49:30;;;;;;;0.40;0.40;;;;;;;3.84;93.19;96059.66;4337816;32;20349;-58
2022/12/20 01:52:15;;;;;;;0.77;0.77;;;;;;;3.71;93.71;96064.16;4322091;32;20309;-57
2022/12/20 01:54:45;;;;;;;1.37;1.27;;;;;;;3.86;93.21;96066.28;4338149;32;20286;-56
2022/12/20 01:57:16;;;;;;;0.83;0.83;;;;;;;3.84;93.60;96063.09;4340280;32;20335;-58
2022/12/20 01:59:45;;;;;;;1.13;1.13;;;;;;;3.64;94.59;96071.34;4334271;32;20317;-56
2022/12/20 02:02:11;;;;;;;1.30;1.30;;;;;;;3.64;95.03;96075.78;4335978;32;20278;-56
2022/12/20 02:04:37;;;;;;;7.73;1.30;;;;;;;3.65;94.70;96064.25;4328674;32;20278;-56
2022/12/20 02:07:05;;;;;;;1.07;1.07;;;;;;;3.79;94.56;96065.59;4331550;32;20290;-55
2022/12/20 02:09:32;;;;;;;1.30;1.30;;;;;;;3.72;94.50;96063.13;4309582;32;20200;-55
2022/12/20 02:12:21;;;;;;;0.40;0.40;;;;;;;3.68;94.67;96055.94;4341756;32;20337;-55
2022/12/20 02:15:14;;;;;;;0.97;0.97;;;;;;;3.61;94.65;96055.25;4345379;32;20370;-58
2022/12/20 02:17:58;;;;;;;0.50;0.50;;;;;;;3.56;94.98;96057.78;4346026;32;20322;-57
2022/12/20 02:20:52;;;;;;;0.57;0.57;;;;;;;3.70;94.75;96052.06;4340811;32;20341;-57
2022/12/20 02:23:39;;;;;;;1.43;1.43;;;;;;;3.65;94.81;96056.41;4332949;32;20297;-57
2022/12/20 02:26:29;;;;;;;0.67;0.67;;;;;;;3.82;94.07;96052.03;4344798;32;20302;-55
2022/12/20 02:29:18;;;;;;;1.60;0.87;;;;;;;3.98;93.30;96053.09;4337533;32;20324;-56
2022/12/20 02:31:54;;;;;;;0.90;0.70;;;;;;;3.96;93.44;96053.34;4324266;32;20274;-56
2022/12/20 02:34:23;;;;;;;1.30;1.30;;;;;;;3.80;93.80;96054.06;4341234;32;20308;-57
2022/12/20 02:36:49;;;;;;;0.43;0.43;;;;;;;3.64;94.71;96052.97;4320127;32;20324;-57
2022/12/20 02:39:15;;;;;;;0.80;0.80;;;;;;;3.50;95.54;96063.97;4342177;32;20278;-55
2022/12/20 02:41:49;;;;;;;0.90;0.90;;;;;;;3.68;95.26;96056.75;4355788;32;20205;-56
2022/12/20 02:47:06;;;;;;;0.60;0.60;;;;;;;3.71;94.88;96055.47;4336603;32;20383;-57
2022/12/20 02:49:37;;;;;;;0.60;0.60;;;;;;;3.65;95.77;96059.03;4334480;32;22096;-56
2022/12/20 02:52:05;;;;;;;0.40;0.40;;;;;;;3.79;95.05;96053.28;4344825;32;20278;-53
2022/12/20 02:54:31;;;;;;;1.03;1.03;;;;;;;3.97;94.17;96060.19;4337097;32;20282;-57
2022/12/20 02:57:04;;;;;;;0.83;0.83;;;;;;;3.83;94.32;96050.19;4335163;32;20333;-57
2022/12/20 02:59:48;;;;;;;0.43;0.43;;;;;;;3.76;94.62;96042.44;4330537;32;20282;-54
2022/12/20 03:02:14;;;;;;;2.30;0.93;;;;;;;3.88;94.67;96034.56;4343225;32;20296;-58
2022/12/20 03:04:40;;;;;;;0.47;0.47;;;;;;;3.72;94.85;96031.63;4349073;32;20281;-56
2022/12/20 03:07:15;;;;;;;0.80;0.80;;;;;;;3.71;95.09;96039.75;4336549;32;20355;-57
2022/12/20 03:09:43;;;;;;;0.40;0.40;;;;;;;3.81;95.10;96032.06;4336557;32;20285;-56
2022/12/20 03:12:10;;;;;;;0.70;0.70;;;;;;;3.71;95.11;96024.00;4344060;32;20455;-58
2022/12/20 03:14:39;;;;;;;0.50;0.47;;;;;;;3.64;95.42;96018.88;4341488;32;20297;-58
2022/12/20 03:17:05;;;;;;;1.20;0.63;;;;;;;3.67;95.64;96023.66;4344242;32;20313;-55
2022/12/20 03:19:30;;;;;;;0.67;0.67;;;;;;;3.73;95.60;96032.44;4342578;32;20281;-58
2022/12/20 03:21:57;;;;;;;0.43;0.43;;;;;;;3.86;94.75;96040.03;4349448;32;20375;-55
2022/12/20 03:24:22;;;;;;;0.53;0.53;;;;;;;3.86;94.79;96036.63;4344356;32;20201;-58
2022/12/20 03:26:48;;;;;;;1.03;1.03;;;;;;;3.73;95.11;96027.19;4326597;32;20405;-56
2022/12/20 03:29:13;;;;;;;1.33;0.97;;;;;;;3.73;95.53;96043.72;4342881;32;20208;-57
2022/12/20 03:31:38;;;;;;;0.50;0.50;;;;;;;3.59;96.30;96049.44;4339856;32;20193;-58
2022/12/20 03:34:04;;;;;;;0.60;0.60;;;;;;;3.65;96.00;96038.03;4344315;32;20198;-56
2022/12/20 03:36:29;;;;;;;0.30;0.30;;;;;;;3.82;95.37;96031.03;4338028;32;20248;-58
2022/12/20 03:38:55;;;;;;;0.67;0.67;;;;;;;3.73;95.33;96030.63;4336351;32;20197;-56
2022/12/20 03:41:21;;;;;;;0.70;0.70;;;;;;;3.61;95.63;96021.97;4337292;32;20208;-57
2022/12/20 03:43:49;;;;;;;0.37;0.37;;;;;;;3.72;94.96;96010.66;4351005;32;20248;-56
2022/12/20 03:46:15;;;;;;;0.83;0.80;;;;;;;3.75;95.01;96010.16;4333449;32;20286;-56
2022/12/20 03:48:40;;;;;;;0.97;0.87;;;;;;;3.87;94.75;96002.28;4340021;32;20343;-56
2022/12/20 03:51:06;;;;;;;0.70;0.70;;;;;;;3.94;94.17;95996.88;4326474;32;20202;-58
2022/12/20 03:53:33;;;;;;;0.30;0.30;;;;;;;3.94;94.14;95996.88;4350209;32;20277;-56
2022/12/20 03:55:58;;;;;;;0.50;0.50;;;;;;;4.00;94.08;95996.72;4345713;32;20189;-57
2022/12/20 03:58:24;;;;;;;0.30;0.30;;;;;;;3.89;93.85;95987.09;4344259;32;20281;-57
2022/12/20 04:00:49;;;;;;;0.20;0.20;;;;;;;3.80;94.33;95991.09;4338015;32;20208;-58
2022/12/20 04:03:14;;;;;;;0.33;0.33;;;;;;;3.73;95.11;95995.72;4343472;32;20193;-58
2022/12/20 04:05:40;;;;;;;0.40;0.40;;;;;;;3.96;94.50;95985.09;4350981;32;20192;-56
2022/12/20 04:08:05;;;;;;;0.57;0.40;;;;;;;4.01;94.17;95993.06;4351686;32;20248;-56
2022/12/20 04:10:31;;;;;;;1.17;0.90;;;;;;;4.06;93.87;95995.00;4342355;32;20252;-57
2022/12/20 04:12:56;;;;;;;0.70;0.70;;;;;;;4.12;93.23;95997.50;4343960;32;20280;-58
2022/12/20 04:15:21;;;;;;;0.30;0.30;;;;;;;4.07;93.22;96004.47;4351146;32;20208;-58
2022/12/20 04:17:48;;;;;;;0.30;0.30;;;;;;;4.04;93.74;96010.97;4343431;32;20232;-57
2022/12/20 04:20:18;;;;;;;0.30;0.30;;;;;;;4.02;93.93;96013.03;4342539;32;20185;-57
2022/12/20 04:22:45;;;;;;;0.20;0.20;;;;;;;4.03;94.06;96009.38;4337596;32;20284;-57
2022/12/20 04:25:11;;;;;;;0.53;0.53;;;;;;;3.89;94.34;96000.22;4354335;32;20365;-57
2022/12/20 04:27:36;;;;;;;0.20;0.20;;;;;;;3.74;95.19;96010.41;4354421;32;20278;-54
2022/12/20 04:30:01;;;;;;;0.13;0.13;;;;;;;3.72;95.88;96007.22;4344354;32;20307;-57
2022/12/20 04:32:27;;;;;;;0.20;0.20;;;;;;;3.93;95.24;96001.34;4337274;32;20259;-57
2022/12/20 04:34:52;;;;;;;0.57;0.57;;;;;;;3.77;95.20;96002.84;4337114;32;20197;-57
2022/12/20 04:37:17;;;;;;;1.17;1.17;;;;;;;3.70;96.03;96001.41;4340112;32;20208;-57
2022/12/20 04:39:43;;;;;;;0.37;0.37;;;;;;;3.70;96.13;96004.03;4340116;32;20189;-56
2022/12/20 04:42:08;;;;;;;1.03;0.27;;;;;;;3.93;94.87;96000.53;4347542;32;20261;-57
2022/12/20 04:44:33;;;;;;;0.77;0.77;;;;;;;3.78;95.53;95998.41;4342272;32;20220;-56
2022/12/20 04:47:00;;;;;;;0.40;0.40;;;;;;;3.81;95.63;95997.94;4334421;32;20201;-56
2022/12/20 04:49:25;;;;;;;0.67;0.67;;;;;;;3.90;94.93;96001.81;4350865;32;20185;-57
2022/12/20 04:51:50;;;;;;;0.60;0.60;;;;;;;3.64;95.89;95999.72;4355366;32;20323;-56
2022/12/20 04:54:15;;;;;;;0.30;0.30;;;;;;;3.65;96.02;95993.44;4334821;32;20220;-57
2022/12/20 04:56:41;;;;;;;0.77;0.43;;;;;;;3.71;96.39;95993.31;4343731;32;20202;-57
2022/12/20 04:59:06;;;;;;;0.60;0.60;;;;;;;3.76;96.02;95990.75;4344637;32;20189;-58
2022/12/20 05:01:31;;;;;;;0.40;0.40;;;;;;;3.76;96.16;95979.47;4334611;32;20336;-57
2022/12/20 05:03:57;;;;;;;0.47;0.47;;;;;;;3.75;95.99;95981.31;4352861;32;20241;-57
2022/12/20 05:06:22;;;;;;;0.10;0.10;;;;;;;3.76;96.05;95975.03;4331774;32;20193;-56
2022/12/20 05:08:47;;;;;;;0.40;0.40;;;;;;;3.95;95.19;95973.00;4354505;32;20229;-57
2022/12/20 05:11:13;;;;;;;0.83;0.40;;;;;;;3.87;95.56;95956.84;4344420;32;20218;-58
2022/12/20 05:13:38;;;;;;;0.50;0.50;;;;;;;3.96;95.06;95955.44;4348236;32;20264;-58
2022/12/20 05:16:04;;;;;;;0.30;0.30;;;;;;;3.99;94.89;95947.09;4341117;32;20253;-57
2022/12/20 05:18:29;;;;;;;0.40;0.40;;;;;;;3.86;95.48;95947.41;4343194;32;20194;-56
2022/12/20 05:26:33;;;;;;;0.70;0.70;;;;;;;4.02;95.29;95950.03;4338897;32;20379;-56
2022/12/20 05:28:58;;;;;;;0.40;0.40;;;;;;;3.89;95.37;95942.47;4327059;32;20304;-57
2022/12/20 05:31:24;;;;;;;0.33;0.33;;;;;;;3.97;95.30;95942.06;4342677;32;20294;-57
2022/12/20 05:33:49;;;;;;;1.70;0.73;;;;;;;4.17;94.42;95948.69;4342066;32;20268;-56
2022/12/20 05:36:14;;;;;;;0.10;0.10;;;;;;;4.13;94.30;95943.94;4328428;32;20207;-54
2022/12/20 05:38:41;;;;;;;1.07;0.70;;;;;;;3.94;94.99;95944.41;4345198;32;20211;-56
2022/12/20 05:41:07;;;;;;;0.47;0.47;;;;;;;4.12;94.30;95947.59;4333448;32;20312;-58
2022/12/20 05:43:33;;;;;;;0.40;0.40;;;;;;;4.11;94.61;95935.50;4325286;32;20360;-58
2022/12/20 05:45:59;;;;;;;0.37;0.37;;;;;;;4.07;94.35;95929.13;4337834;32;20213;-56
2022/12/20 05:48:24;;;;;;;0.80;0.80;;;;;;;4.09;94.23;95927.06;4331195;32;20223;-58
2022/12/20 05:50:49;;;;;;;0.37;0.37;;;;;;;3.90;95.04;95923.06;4323122;33;20295;-57
2022/12/20 05:53:16;;;;;;;0.10;0.10;;;;;;;3.89;95.29;95920.69;4337003;32;20190;-57
2022/12/20 05:55:48;;;;;;;0.50;0.50;;;;;;;3.97;95.36;95917.66;4346194;32;20339;-57
2022/12/20 05:58:14;;;;;;;0.37;0.37;;;;;;;3.99;95.23;95920.84;4343515;32;20211;-56
2022/12/20 06:00:40;;;;;;;0.33;0.33;;;;;;;4.01;95.08;95909.06;4337710;32;20269;-58
2022/12/20 06:03:08;;;;;;;0.33;0.33;;;;;;;3.93;94.98;95906.88;4321116;32;20197;-55
2022/12/20 06:05:34;;;;;;;0.10;0.10;;;;;;;3.81;95.48;95906.09;4333725;32;20389;-58
2022/12/20 06:07:59;;;;;;;0.67;0.50;;;;;;;3.89;95.49;95913.59;4334004;32;20289;-57
2022/12/20 06:10:25;;;;;;;0.83;0.80;;;;;;;4.07;95.06;95923.87;4325745;32;20325;-57
2022/12/20 06:12:50;;;;;;;0.17;0.17;;;;;;;4.00;94.83;95930.31;4343760;32;20247;-58
2022/12/20 06:15:16;;;;;;;0.20;0.20;;;;;;;4.00;94.91;95915.37;4332950;32;20193;-58
2022/12/20 06:17:43;;;;;;;0.33;0.33;;;;;;;4.05;94.84;95919.91;4342781;32;20192;-58
2022/12/20 06:20:11;;;;;;;0.30;0.30;;;;;;;4.13;94.50;95919.53;4340683;32;20201;-58
2022/12/20 06:22:36;;;;;;;0.30;0.30;;;;;;;3.99;95.12;95926.88;4328434;32;20297;-58
2022/12/20 06:25:02;;;;;;;0.40;0.40;;;;;;;4.04;95.28;95913.84;4341360;32;20298;-57
2022/12/20 06:27:27;;;;;;;0.47;0.47;;;;;;;4.19;94.78;95920.38;4335471;32;20247;-57
2022/12/20 06:29:53;;;;;;;0.60;0.60;;;;;;;4.19;94.78;95918.56;4337255;32;20201;-56
2022/12/20 06:32:19;;;;;;;0.20;0.20;;;;;;;4.18;94.48;95918.78;4332639;32;20224;-58
2022/12/20 06:34:45;;;;;;;0.57;0.57;;;;;;;4.22;94.34;95909.41;4331228;32;20197;-59
2022/12/20 06:37:10;;;;;;;0.67;0.67;;;;;;;4.18;94.02;95908.28;4336203;32;20360;-58
2022/12/20 06:39:35;;;;;;;0.17;0.17;;;;;;;4.28;94.04;95909.25;4324956;32;20235;-58
2022/12/20 06:42:01;;;;;;;0.40;0.40;;;;;;;4.14;94.49;95919.28;4336094;32;20194;-57
2022/12/20 06:44:26;;;;;;;0.53;0.53;;;;;;;4.11;94.96;95919.75;4341019;32;20208;-56
2022/12/20 06:46:51;;;;;;;0.63;0.57;;;;;;;4.31;94.30;95924.53;4344084;32;20211;-59
2022/12/20 06:49:17;;;;;;;0.23;0.23;;;;;;;4.16;94.48;95923.50;4340481;32;20285;-58
2022/12/20 06:51:42;;;;;;;0.63;0.63;;;;;;;4.11;94.72;95917.13;4344993;32;20212;-58
2022/12/20 06:54:07;;;;;;;0.50;0.50;;;;;;;4.25;94.64;95909.75;4343870;32;20190;-57
2022/12/20 06:56:33;;;;;;;0.40;0.40;;;;;;;4.19;94.87;95917.75;4322175;32;20287;-58
2022/12/20 06:58:58;;;;;;;0.73;0.73;;;;;;;4.12;95.29;95916.09;4327015;32;20189;-59
2022/12/20 07:01:23;;;;;;;0.97;0.97;;;;;;;4.12;95.11;95916.09;4331476;32;20253;-57
2022/12/20 07:03:49;;;;;;;0.30;0.30;;;;;;;3.96;95.51;95916.84;4341175;32;20223;-56
2022/12/20 07:06:14;;;;;;;0.83;0.83;;;;;;;4.11;95.49;95916.34;4351572;32;20193;-56
2022/12/20 07:08:39;;;;;;;0.70;0.70;;;;;;;4.12;95.36;95905.59;4340647;32;20260;-56
2022/12/20 07:11:06;;;;;;;0.93;0.93;;;;;;;4.19;94.97;95909.88;4335468;32;20216;-58
2022/12/20 07:13:31;;;;;;;0.33;0.33;;;;;;;4.21;94.75;95907.81;4344044;32;20245;-58
2022/12/20 07:15:58;;;;;;;0.20;0.20;;;;;;;4.24;94.72;95902.09;4346343;32;20320;-55
2022/12/20 07:18:24;;;;;;;1.03;0.67;;;;;;;4.21;94.64;95900.75;4345498;32;20212;-56
2022/12/20 07:20:49;;;;;;;0.33;0.33;;;;;;;4.05;95.05;95901.53;4342191;32;20295;-58
2022/12/20 07:23:14;;;;;;;0.63;0.63;;;;;;;4.08;95.39;95893.97;4343950;32;20197;-57
2022/12/20 07:25:40;;;;;;;0.83;0.80;;;;;;;4.12;95.48;95902.19;4342697;32;20189;-56
2022/12/20 07:28:05;;;;;;;0.43;0.43;;;;;;;4.14;95.44;95908.00;4342882;32;20239;-58
2022/12/20 07:30:31;;;;;;;0.27;0.27;;;;;;;4.23;95.22;95905.75;4340297;32;20223;-58
2022/12/20 07:32:57;;;;;;;0.73;0.73;;;;;;;4.39;94.57;95899.69;4343951;32;20212;-57
2022/12/20 07:35:23;;;;;;;0.50;0.50;;;;;;;4.37;94.66;95899.13;4354311;32;20193;-58
2022/12/20 07:37:48;;;;;;;0.40;0.40;;;;;;;4.23;95.38;95900.50;4339549;32;20415;-58
2022/12/20 07:40:15;;;;;;;0.37;0.37;;;;;;;4.29;94.85;95894.31;4347961;32;20196;-59
2022/12/20 07:42:40;;;;;;;0.87;0.60;;;;;;;4.30;95.27;95895.91;4347682;32;20247;-58
2022/12/20 07:45:06;;;;;;;0.70;0.70;;;;;;;4.22;95.17;95893.66;4343839;32;20285;-58
2022/12/20 07:47:34;;;;;;;1.50;0.53;;;;;;;4.26;95.42;95913.16;4340611;32;20193;-58
2022/12/20 07:49:59;;;;;;;1.10;1.07;;;;;;;4.33;95.18;95911.19;4344917;32;20198;-57
2022/12/20 07:52:28;;;;;;;0.30;0.30;;;;;;;4.34;95.14;95910.94;4333395;32;20357;-58
2022/12/20 07:54:57;;;;;;;0.10;0.10;;;;;;;4.32;95.30;95925.34;4327203;32;20214;-59
2022/12/20 07:57:36;;;;;;;0.30;0.30;;;;;;;5.04;99.74;95912.19;4325280;33;20283;-54
2022/12/20 08:00:04;;;;;;;0.63;0.53;;;;;;;5.77;100.00;95932.00;4342759;32;20368;-58
2022/12/20 08:02:38;;;;;;;0.73;0.73;;;;;;;5.27;97.08;95917.22;4331393;32;20284;-58
2022/12/20 08:05:08;;;;;;;1.23;1.23;;;;;;;4.98;94.50;95921.84;4330353;33;20386;-56
2022/12/20 08:07:38;;;;;;;0.80;0.80;;;;;;;4.78;93.96;95940.75;4325541;32;20315;-57
2022/12/20 08:10:11;;;;;;;0.67;0.67;;;;;;;4.83;93.50;95935.56;4341111;32;20368;-58
2022/12/20 08:12:38;;;;;;;0.30;0.30;;;;;;;4.64;94.23;95928.97;4330090;32;20324;-59
2022/12/20 08:15:06;;;;;;;0.87;0.87;;;;;;;4.67;94.34;95932.97;4333441;32;20364;-57
2022/12/20 08:17:31;;;;;;;0.53;0.53;;;;;;;4.59;94.56;95926.28;4347603;32;20289;-57
2022/12/20 08:19:59;;;;;;;0.53;0.53;;;;;;;4.63;94.52;95922.13;4351025;32;20285;-57
2022/12/20 08:22:25;;;;;;;0.47;0.47;;;;;;;4.71;94.16;95919.09;4333122;32;20224;-57
2022/12/20 08:24:50;;;;;;;0.80;0.80;;;;;;;4.86;93.99;95915.09;4337979;32;20300;-58
2022/12/20 08:27:16;;;;;;;0.33;0.33;;;;;;;5.08;92.93;95919.34;4339191;32;20286;-59
2022/12/20 08:29:42;;;;;;;0.17;0.17;;;;;;;5.18;92.27;95914.22;4351141;32;20220;-56
2022/12/20 08:32:09;;;;;;;1.00;1.00;;;;;;;5.04;92.60;95914.81;4314243;32;20228;-58
2022/12/20 08:34:36;;;;;;;0.87;0.70;;;;;;;5.10;92.93;95911.22;4328785;32;20365;-58
2022/12/20 08:37:01;;;;;;;0.33;0.33;;;;;;;5.21;92.37;95898.97;4331785;32;20292;-57
2022/12/20 08:39:26;;;;;;;1.60;0.50;;;;;;;5.21;92.13;95893.72;4346396;32;20298;-56
2022/12/20 08:41:52;;;;;;;0.30;0.30;;;;;;;5.47;91.40;95906.91;4346293;32;20198;-58
2022/12/20 08:44:18;;;;;;;0.70;0.70;;;;;;;5.51;90.38;95912.50;4346036;32;20225;-57
2022/12/20 08:46:44;;;;;;;0.20;0.20;;;;;;;5.57;89.71;95911.50;4327583;32;20325;-55
2022/12/20 08:49:10;;;;;;;0.73;0.73;;;;;;;5.70;89.66;95911.12;4342163;32;20191;-57
2022/12/20 08:51:35;;;;;;;0.90;0.90;;;;;;;5.41;90.44;95923.69;4314904;32;20365;-58
2022/12/20 08:54:01;;;;;;;0.47;0.47;;;;;;;5.60;90.17;95926.03;4338620;32;20235;-58
2022/12/20 08:56:27;;;;;;;0.70;0.60;;;;;;;5.56;89.94;95928.34;4340064;32;20201;-58
2022/12/20 08:58:53;;;;;;;0.90;0.57;;;;;;;5.61;89.99;95922.34;4342811;32;20313;-58
2022/12/20 09:01:23;;;;;;;0.50;0.50;;;;;;;5.78;89.38;95912.53;4346811;32;20266;-56
2022/12/20 09:03:48;;;;;;;0.43;0.43;;;;;;;5.63;89.50;95910.50;4345308;32;20322;-58
2022/12/20 09:06:37;;;;;;;0.37;0.37;;;;;;;5.85;89.28;95918.38;4343326;32;20299;-58
2022/12/20 09:09:03;;;;;;;0.77;0.77;;;;;;;5.56;90.38;95914.38;4340330;32;20250;-58
2022/12/20 09:11:29;;;;;;;0.40;0.40;;;;;;;5.63;90.30;95910.50;4322431;32;20343;-58
2022/12/20 09:13:57;;;;;;;4.63;1.27;;;;;;;5.58;90.70;95910.47;4338913;32;20283;-58
2022/12/20 09:16:28;;;;;;;0.43;0.43;;;;;;;5.87;89.49;95896.00;4350329;32;20409;-58
2022/12/20 09:18:56;;;;;;;1.00;0.87;;;;;;;5.97;89.78;95900.63;4347320;32;20290;-56
2022/12/20 09:21:22;;;;;;;0.90;0.87;;;;;;;5.98;89.10;95893.53;4343263;32;20289;-57
2022/12/20 09:23:53;;;;;;;0.63;0.63;;;;;;;6.18;88.27;95897.12;4347432;32;20415;-56
2022/12/20 09:26:20;;;;;;;3.13;1.33;;;;;;;6.20;88.09;95895.03;4343876;32;20225;-56
2022/12/20 09:28:46;;;;;;;0.67;0.67;;;;;;;6.18;87.76;95880.53;4325012;32;20293;-60
2022/12/20 09:31:16;;;;;;;0.77;0.77;;;;;;;6.25;87.39;95881.09;4348366;32;20302;-58
2022/12/20 09:33:41;;;;;;;0.83;0.83;;;;;;;6.15;87.53;95873.91;4331275;32;20297;-58
2022/12/20 09:36:13;;;;;;;1.50;0.73;;;;;;;6.17;87.84;95878.94;4345403;32;20345;-57
2022/12/20 09:38:39;;;;;;;0.80;0.80;;;;;;;6.35;86.78;95875.91;4339327;32;20212;-57
2022/12/20 09:41:14;;;;;;;1.00;1.00;;;;;;;6.41;86.71;95877.53;4354630;32;20432;-59
2022/12/20 09:43:41;;;;;;;0.70;0.70;;;;;;;6.66;85.96;95866.34;4328311;32;20196;-57
2022/12/20 09:46:13;;;;;;;2.47;1.30;;;;;;;6.64;86.13;95876.38;4333309;32;20311;-57
2022/12/20 09:48:41;;;;;;;1.47;1.40;;;;;;;6.55;86.15;95872.63;4336347;32;20285;-52
2022/12/20 09:51:31;;;;;;;0.93;0.93;;;;;;;6.72;85.47;95862.72;4342428;32;20299;-56
2022/12/20 09:54:31;;;;;;;0.97;0.97;;;;;;;6.55;86.16;95854.16;4331308;32;20290;-57
2022/12/20 09:57:45;;;;;;;1.10;1.00;;;;;;;6.50;86.97;95848.88;4333701;32;20294;-59
2022/12/20 10:00:16;;;;;;;0.77;0.77;;;;;;;6.50;86.60;95846.22;4318981;32;20301;-57
2022/12/20 10:02:41;;;;;;;0.83;0.83;;;;;;;6.86;85.46;95855.91;4322770;32;20282;-57
2022/12/20 10:05:19;;;;;;;1.47;0.77;;;;;;;6.82;85.33;95849.59;4341586;32;20300;-59
2022/12/20 10:08:26;;;;;;;1.43;1.33;;;;;;;6.81;85.32;95840.09;4320075;33;20228;-58
2022/12/20 10:11:05;;;;;;;0.90;0.90;;;;;;;6.83;85.59;95831.94;4303502;32;20312;-57
2022/12/20 10:13:53;;;;;;;1.13;1.03;;;;;;;6.91;85.20;95831.41;4303708;32;20329;-58
2022/12/20 10:16:43;;;;;;;1.17;1.17;;;;;;;6.99;84.65;95827.50;4315072;32;20340;-59
2022/12/20 10:19:27;;;;;;;1.07;1.07;;;;;;;7.30;83.78;95831.03;4321737;32;20357;-59
2022/12/20 10:22:20;;;;;;;1.20;1.17;;;;;;;7.18;84.03;95836.56;4315118;32;20287;-58
2022/12/20 10:25:17;;;;;;;1.27;1.17;;;;;;;7.07;84.33;95832.28;4330986;32;20360;-59
2022/12/20 10:27:45;;;;;;;0.67;0.67;;;;;;;7.37;83.00;95829.75;4327915;32;20336;-58
2022/12/20 10:30:19;;;;;;;0.67;0.50;;;;;;;7.44;83.19;95825.03;4335152;32;20348;-58
2022/12/20 10:32:52;;;;;;;1.17;1.10;;;;;;;7.65;82.39;95820.56;4334348;32;20343;-59
2022/12/20 10:35:51;;;;;;;0.83;0.83;;;;;;;7.62;82.16;95821.09;4331883;32;20290;-58
2022/12/20 10:38:17;;;;;;;1.30;1.20;;;;;;;7.45;82.58;95829.25;4295139;32;20337;-58
2022/12/20 10:41:01;;;;;;;0.57;0.57;;;;;;;7.47;83.36;95824.50;4319750;32;20306;-58
2022/12/20 10:43:39;;;;;;;1.63;0.93;;;;;;;7.83;81.55;95817.41;4328681;32;20223;-58
2022/12/20 10:46:06;;;;;;;1.40;1.30;;;;;;;7.42;82.80;95811.28;4336561;32;20277;-57
2022/12/20 10:48:41;;;;;;;0.97;0.90;;;;;;;7.53;82.84;95806.81;4325574;32;20289;-57
2022/12/20 10:51:09;;;;;;;0.40;0.40;;;;;;;7.35;84.05;95794.09;4317911;32;20310;-58
2022/12/20 10:53:49;;;;;;;0.80;0.80;;;;;;;7.47;84.18;95786.75;4333237;32;20281;-58
2022/12/20 10:56:30;;;;;;;1.30;0.83;;;;;;;7.70;82.81;95785.44;4338107;32;20339;-58
2022/12/20 10:59:23;;;;;;;1.43;1.43;;;;;;;7.55;83.68;95779.09;4330511;32;20296;-58
2022/12/20 11:01:49;;;;;;;1.17;0.83;;;;;;;7.72;83.72;95780.69;4313405;32;20331;-58
2022/12/20 11:04:35;;;;;;;0.80;0.80;;;;;;;7.55;84.12;95773.81;4335305;32;20293;-58
2022/12/20 11:07:20;;;;;;;1.30;0.90;;;;;;;7.56;84.62;95771.97;4337309;32;20205;-58
2022/12/20 11:09:53;;;;;;;0.57;0.57;;;;;;;7.86;82.59;95761.44;4342225;32;20289;-59
2022/12/20 11:12:19;;;;;;;2.33;1.93;;;;;;;7.76;82.97;95758.00;4344764;32;20347;-59
2022/12/20 11:14:46;;;;;;;1.37;1.33;;;;;;;7.96;82.49;95752.69;4336494;32;20282;-54
2022/12/20 11:17:35;;;;;;;1.17;1.17;;;;;;;8.09;81.76;95756.66;4331340;32;20196;-57
2022/12/20 11:20:24;;;;;;;0.77;0.77;;;;;;;7.75;83.58;95751.91;4342108;32;20277;-58
2022/12/20 11:23:20;;;;;;;0.77;0.77;;;;;;;7.90;83.50;95745.81;4342153;32;20315;-54
2022/12/20 11:25:57;;;;;;;0.87;0.87;;;;;;;7.99;83.01;95741.59;4338140;32;20292;-59
2022/12/20 11:28:49;;;;;;;0.70;0.70;;;;;;;8.01;82.26;95742.13;4333919;32;20324;-57
2022/12/20 11:31:36;;;;;;;1.23;1.17;;;;;;;8.04;82.19;95736.31;4343317;32;20281;-56
2022/12/20 11:34:14;;;;;;;0.60;0.60;;;;;;;8.16;81.81;95736.81;4337083;32;20286;-56
2022/12/20 11:37:19;;;;;;;0.77;0.77;;;;;;;8.18;81.96;95732.06;4335497;32;20197;-57
2022/12/20 11:40:01;;;;;;;0.40;0.40;;;;;;;8.21;81.78;95722.81;4334439;32;20285;-55
2022/12/20 11:42:48;;;;;;;1.07;1.07;;;;;;;8.11;82.56;95720.19;4343246;32;20304;-54
2022/12/20 11:45:39;;;;;;;1.43;1.33;;;;;;;7.96;83.43;95721.00;4334623;32;20319;-54
2022/12/20 11:48:19;;;;;;;1.13;1.13;;;;;;;8.21;82.48;95718.31;4333027;32;20356;-57
2022/12/20 11:51:00;;;;;;;4.67;1.93;;;;;;;8.11;82.95;95702.47;4334931;32;20353;-56
2022/12/20 11:53:40;;;;;;;0.53;0.53;;;;;;;7.96;83.51;95694.59;4334770;32;20300;-53
2022/12/20 11:56:12;;;;;;;1.13;0.90;;;;;;;8.26;82.21;95693.72;4345906;32;20375;-55
2022/12/20 11:58:47;;;;;;;1.20;1.13;;;;;;;8.13;83.04;95681.84;4341350;32;20385;-55
2022/12/20 12:01:16;;;;;;;1.43;1.43;;;;;;;8.08;83.24;95681.91;4336383;32;20289;-55
2022/12/20 12:04:10;;;;;;;1.43;1.43;;;;;;;8.13;83.82;95673.13;4330867;32;20228;-54